| time (UTC) | temp F | wind direction | speed knots | gust knots | rain 1hr in | rain 24hr in | rain mn in | humidity % | barometer mb |
| 20260506004232 | 73 | 209 | 0.9 | 0.0 | 0.00 | 0.00 | 0.00 | 60 | |
| 20260506003232 | 73 | 209 | 0.9 | 0.0 | 0.00 | 0.00 | 0.00 | 60 | |
| 20260506002253 | 74 | 156 | 0.0 | 0.0 | 0.00 | 0.00 | 0.00 | 58 | |
| 20260506001232 | 76 | 214 | 0.0 | 0.0 | 0.00 | 0.00 | 0.00 | 57 | |
| 20260506000232 | 76 | 214 | 0.0 | 0.0 | 0.00 | 0.00 | 0.00 | 57 | |
| 20260505235232 | 78 | 178 | 0.9 | 0.0 | 0.00 | 0.00 | 0.00 | 54 | |
| 20260505234233 | 79 | 183 | 4.3 | 0.0 | 0.00 | 0.00 | 0.00 | 52 | |
| 20260505233232 | 79 | 183 | 4.3 | 0.0 | 0.00 | 0.00 | 0.00 | 52 | |
| 20260505232232 | 81 | 174 | 4.3 | 0.0 | 0.00 | 0.00 | 0.00 | 51 | |
| 20260505231232 | 84 | 11 | 0.9 | 0.0 | 0.00 | 0.00 | 0.00 | 46 | |
| 20260505230232 | 84 | 11 | 0.9 | 0.0 | 0.00 | 0.00 | 0.00 | 46 | |
| 20260505225232 | 85 | 184 | 5.2 | 0.0 | 0.00 | 0.00 | 0.00 | 38 | |
| 20260505224232 | 88 | 158 | 0.9 | 0.0 | 0.00 | 0.00 | 0.00 | 35 | |
| 20260505223232 | 88 | 158 | 0.9 | 0.0 | 0.00 | 0.00 | 0.00 | 35 | |
| 20260505222232 | 88 | 168 | 4.3 | 0.0 | 0.00 | 0.00 | 0.00 | 34 | |
| 20260505221232 | 88 | 98 | 4.3 | 0.0 | 0.00 | 0.00 | 0.00 | 38 | |
| 20260505220232 | 88 | 98 | 4.3 | 0.0 | 0.00 | 0.00 | 0.00 | 38 | |
| 20260505215232 | 89 | 113 | 0.0 | 0.0 | 0.00 | 0.00 | 0.00 | 38 | |
| 20260505214253 | 88 | 92 | 1.7 | 0.0 | 0.00 | 0.00 | 0.00 | 40 | |
| 20260505213232 | 88 | 92 | 1.7 | 0.0 | 0.00 | 0.00 | 0.00 | 40 | |
| 20260505212232 | 89 | 101 | 2.6 | 0.0 | 0.00 | 0.00 | 0.00 | 43 | |
| 20260505211232 | 88 | 92 | 2.6 | 0.0 | 0.00 | 0.00 | 0.00 | 44 | |
| 20260505210232 | 88 | 92 | 2.6 | 0.0 | 0.00 | 0.00 | 0.00 | 44 | |
| 20260505205232 | 88 | 118 | 1.7 | 0.0 | 0.00 | 0.00 | 0.00 | 44 | |
| 20260505204253 | 87 | 123 | 2.6 | 0.0 | 0.00 | 0.00 | 0.00 | 45 | |
| 20260505203232 | 87 | 123 | 2.6 | 0.0 | 0.00 | 0.00 | 0.00 | 45 | |
| 20260505202253 | 87 | 65 | 0.9 | 0.0 | 0.00 | 0.00 | 0.00 | 48 | |
| 20260505201232 | 86 | 90 | 3.5 | 0.0 | 0.00 | 0.00 | 0.00 | 48 | |
| 20260505200232 | 86 | 90 | 3.5 | 0.0 | 0.00 | 0.00 | 0.00 | 48 | |
| 20260505195232 | 86 | 93 | 5.2 | 0.0 | 0.00 | 0.00 | 0.00 | 50 | |
| 20260505194232 | 85 | 76 | 7.8 | 0.0 | 0.00 | 0.00 | 0.00 | 50 | |
| 20260505193232 | 85 | 76 | 7.8 | 0.0 | 0.00 | 0.00 | 0.00 | 50 | |
| 20260505192232 | 85 | 59 | 5.2 | 0.0 | 0.00 | 0.00 | 0.00 | 52 | |
| 20260505191232 | 84 | 52 | 7.0 | 0.0 | 0.00 | 0.00 | 0.00 | 55 | |
| 20260505190253 | 84 | 52 | 7.0 | 0.0 | 0.00 | 0.00 | 0.00 | 55 | |
| 20260505185232 | 83 | 64 | 5.2 | 0.0 | 0.00 | 0.00 | 0.00 | 55 | |
| 20260505184232 | 83 | 86 | 7.8 | 0.0 | 0.00 | 0.00 | 0.00 | 53 | |
| 20260505183232 | 83 | 86 | 7.8 | 0.0 | 0.00 | 0.00 | 0.00 | 53 | |
| 20260505182232 | 84 | 85 | 5.2 | 0.0 | 0.00 | 0.00 | 0.00 | 54 | |
| 20260505181232 | 84 | 43 | 6.1 | 0.0 | 0.00 | 0.00 | 0.00 | 57 | |
| 20260505180232 | 84 | 43 | 6.1 | 0.0 | 0.00 | 0.00 | 0.00 | 57 | |
| 20260505175253 | 82 | 72 | 7.8 | 0.0 | 0.00 | 0.00 | 0.00 | 58 | |
| 20260505174232 | 81 | 63 | 5.2 | 0.0 | 0.00 | 0.00 | 0.00 | 59 | |
| 20260505173253 | 81 | 63 | 5.2 | 0.0 | 0.00 | 0.00 | 0.00 | 59 | |
| 20260505172232 | 80 | 69 | 7.0 | 0.0 | 0.00 | 0.00 | 0.00 | 61 | |
| 20260505171232 | 80 | 82 | 6.1 | 0.0 | 0.00 | 0.00 | 0.00 | 63 | |
| 20260505170232 | 80 | 82 | 6.1 | 0.0 | 0.00 | 0.00 | 0.00 | 63 | |
| 20260505165253 | 79 | 72 | 9.6 | 0.0 | 0.00 | 0.00 | 0.00 | 62 | |
| 20260505164232 | 78 | 122 | 4.3 | 0.0 | 0.00 | 0.00 | 0.00 | 66 | |
| 20260505163253 | 78 | 122 | 4.3 | 0.0 | 0.00 | 0.00 | 0.00 | 66 | |
| 20260505162232 | 77 | 79 | 8.7 | 0.0 | 0.00 | 0.00 | 0.00 | 65 | |
| 20260505161232 | 77 | 86 | 7.0 | 0.0 | 0.00 | 0.00 | 0.00 | 67 | |
| 20260505160253 | 77 | 86 | 7.0 | 0.0 | 0.00 | 0.00 | 0.00 | 67 | |
| 20260505153232 | 76 | 81 | 7.0 | 0.0 | 0.00 | 0.00 | 0.00 | 69 | |
| 20260505152232 | 75 | 98 | 5.2 | 0.0 | 0.00 | 0.00 | 0.00 | 72 | |
| 20260505151232 | 74 | 76 | 7.0 | 0.0 | 0.00 | 0.00 | 0.00 | 73 | |
| 20260505150253 | 74 | 76 | 7.0 | 0.0 | 0.00 | 0.00 | 0.00 | 73 | |
| 20260505140232 | 72 | 67 | 8.7 | 0.0 | 0.00 | 0.00 | 0.00 | 77 | |
| 20260505130232 | 71 | 70 | 5.2 | 0.0 | 0.00 | 0.00 | 0.00 | 81 | |
| 20260505124232 | 70 | 87 | 3.5 | 0.0 | 0.00 | 0.00 | 0.00 | 81 | |
| 20260505123232 | 70 | 87 | 3.5 | 0.0 | 0.00 | 0.00 | 0.00 | 81 | |
| 20260505122232 | 70 | 57 | 5.2 | 0.0 | 0.00 | 0.00 | 0.00 | 81 | |
| 20260505121232 | 71 | 72 | 5.2 | 0.0 | 0.00 | 0.00 | 0.00 | 80 | |
| 20260505120232 | 71 | 72 | 5.2 | 0.0 | 0.00 | 0.00 | 0.00 | 80 | |
| 20260505115232 | 70 | 102 | 3.5 | 0.0 | 0.00 | 0.00 | 0.00 | 80 | |
| 20260505114232 | 71 | 80 | 5.2 | 0.0 | 0.00 | 0.00 | 0.00 | 79 | |
| 20260505113232 | 71 | 80 | 5.2 | 0.0 | 0.00 | 0.00 | 0.00 | 79 | |
| 20260505112232 | 71 | 46 | 5.2 | 0.0 | 0.00 | 0.00 | 0.00 | 79 | |
| 20260505111233 | 71 | 89 | 4.3 | 0.0 | 0.00 | 0.00 | 0.00 | 79 | |
| 20260505110232 | 71 | 89 | 4.3 | 0.0 | 0.00 | 0.00 | 0.00 | 79 | |
| 20260505101232 | 71 | 32 | 5.2 | 0.0 | 0.00 | 0.00 | 0.00 | 78 | |
| 20260505100232 | 71 | 32 | 5.2 | 0.0 | 0.00 | 0.00 | 0.00 | 78 | |
| 20260505095232 | 71 | 73 | 5.2 | 0.0 | 0.00 | 0.00 | 0.00 | 78 | |
| 20260505094232 | 71 | 69 | 6.1 | 0.0 | 0.00 | 0.00 | 0.00 | 78 | |
| 20260505093232 | 71 | 69 | 6.1 | 0.0 | 0.00 | 0.00 | 0.00 | 78 | |
| 20260505092232 | 71 | 41 | 7.0 | 0.0 | 0.00 | 0.00 | 0.00 | 78 | |
| 20260505091232 | 71 | 69 | 5.2 | 0.0 | 0.00 | 0.00 | 0.00 | 77 | |
| 20260505090232 | 71 | 69 | 5.2 | 0.0 | 0.00 | 0.00 | 0.00 | 77 | |
| 20260505085232 | 72 | 42 | 8.7 | 0.0 | 0.00 | 0.00 | 0.00 | 77 | |
| 20260505084232 | 72 | 81 | 5.2 | 0.0 | 0.00 | 0.00 | 0.00 | 76 | |
| 20260505083232 | 72 | 81 | 5.2 | 0.0 | 0.00 | 0.00 | 0.00 | 76 | |
| 20260505082253 | 72 | 81 | 8.7 | 0.0 | 0.00 | 0.00 | 0.00 | 76 | |
| 20260505081232 | 72 | 40 | 8.7 | 0.0 | 0.00 | 0.00 | 0.00 | 75 | |
| 20260505080232 | 72 | 40 | 8.7 | 0.0 | 0.00 | 0.00 | 0.00 | 75 | |
| 20260505075232 | 72 | 44 | 6.1 | 0.0 | 0.00 | 0.00 | 0.00 | 74 | |
| 20260505074232 | 73 | 26 | 11.3 | 0.0 | 0.00 | 0.00 | 0.00 | 72 | |
| 20260505073232 | 73 | 26 | 11.3 | 0.0 | 0.00 | 0.00 | 0.00 | 72 | |
| 20260505072232 | 73 | 92 | 8.7 | 0.0 | 0.00 | 0.00 | 0.00 | 71 | |
| 20260505071232 | 73 | 72 | 7.8 | 0.0 | 0.00 | 0.00 | 0.00 | 69 | |
| 20260505070232 | 73 | 72 | 7.8 | 0.0 | 0.00 | 0.00 | 0.00 | 69 | |
| 20260505065232 | 73 | 81 | 6.1 | 0.0 | 0.00 | 0.00 | 0.00 | 69 | |
| 20260505064232 | 73 | 62 | 5.2 | 0.0 | 0.00 | 0.00 | 0.00 | 67 | |
| 20260505063253 | 73 | 62 | 5.2 | 0.0 | 0.00 | 0.00 | 0.00 | 67 | |
| 20260505062232 | 73 | 64 | 4.3 | 0.0 | 0.00 | 0.00 | 0.00 | 67 | |
| 20260505061253 | 74 | 47 | 4.3 | 0.0 | 0.00 | 0.00 | 0.00 | 67 | |
| 20260505060232 | 74 | 47 | 4.3 | 0.0 | 0.00 | 0.00 | 0.00 | 67 | |
| 20260505055253 | 74 | 48 | 8.7 | 0.0 | 0.00 | 0.00 | 0.00 | 66 | |
| 20260505054253 | 74 | 50 | 3.5 | 0.0 | 0.00 | 0.00 | 0.00 | 65 | |
| 20260505053232 | 74 | 50 | 3.5 | 0.0 | 0.00 | 0.00 | 0.00 | 65 | |
| 20260505052253 | 74 | 90 | 2.6 | 0.0 | 0.00 | 0.00 | 0.00 | 64 | |
| 20260505051253 | 74 | 37 | 10.4 | 0.0 | 0.00 | 0.00 | 0.00 | 64 | |
| 20260505050232 | 74 | 37 | 10.4 | 0.0 | 0.00 | 0.00 | 0.00 | 64 | |
| 20260505041232 | 75 | 37 | 3.5 | 0.0 | 0.00 | 0.00 | 0.00 | 62 | |
| 20260505040232 | 75 | 37 | 3.5 | 0.0 | 0.00 | 0.00 | 0.00 | 62 | |
| 20260505035253 | 75 | 58 | 9.6 | 0.0 | 0.00 | 0.00 | 0.00 | 61 | |
| 20260505034232 | 75 | 61 | 4.3 | 0.0 | 0.00 | 0.00 | 0.00 | 61 | |
| 20260505033232 | 75 | 61 | 4.3 | 0.0 | 0.00 | 0.00 | 0.00 | 61 | |
| 20260505032232 | 75 | 24 | 7.8 | 0.0 | 0.00 | 0.00 | 0.00 | 60 | |
| 20260505031253 | 75 | 96 | 11.3 | 0.0 | 0.00 | 0.00 | 0.00 | 60 | |
| 20260505030253 | 75 | 96 | 11.3 | 0.0 | 0.00 | 0.00 | 0.00 | 60 | |
| 20260505025253 | 75 | 65 | 8.7 | 0.0 | 0.00 | 0.00 | 0.00 | 60 | |
| 20260505024232 | 76 | 49 | 5.2 | 0.0 | 0.00 | 0.00 | 0.00 | 59 | |
| 20260505023232 | 76 | 49 | 5.2 | 0.0 | 0.00 | 0.00 | 0.00 | 59 | |
| 20260505022232 | 76 | 91 | 7.8 | 0.0 | 0.00 | 0.00 | 0.00 | 59 | |
| 20260505021232 | 76 | 45 | 4.3 | 0.0 | 0.00 | 0.00 | 0.00 | 58 | |
| 20260505020232 | 76 | 45 | 4.3 | 0.0 | 0.00 | 0.00 | 0.00 | 58 | |
| 20260505015232 | 76 | 23 | 7.8 | 0.0 | 0.00 | 0.00 | 0.00 | 57 | |
| 20260505014232 | 76 | 86 | 3.5 | 0.0 | 0.00 | 0.00 | 0.00 | 57 | |
| 20260505013232 | 76 | 86 | 3.5 | 0.0 | 0.00 | 0.00 | 0.00 | 57 | |
| 20260505012232 | 77 | 87 | 8.7 | 0.0 | 0.00 | 0.00 | 0.00 | 57 | |
| 20260505011232 | 77 | 32 | 7.0 | 0.0 | 0.00 | 0.00 | 0.00 | 56 | |
| 20260505010232 | 77 | 32 | 7.0 | 0.0 | 0.00 | 0.00 | 0.00 | 56 | |
| 20260505005232 | 77 | 84 | 6.1 | 0.0 | 0.00 | 0.00 | 0.00 | 55 |